Time;durP1;ratioP1;P1;durP2;ratioP2;P2;SDS_P1;SDS_P2;PMS_P1;PMS_P2;Temp;Humidity;BMP_temperature;BMP_pressure;BME280_temperature;BME280_humidity;BME280_pressure;Samples;Min_cycle;Max_cycle;Signal;HPM_P1;HPM_P2
2022/08/21 00:03:56;;;;;;;2.53;1.20;;;;;;;;;;10426771;28;20045;-58
2022/08/21 00:08:57;;;;;;;5.35;1.65;;;;;;;;;;10442802;28;20441;-52
2022/08/21 00:13:58;;;;;;;4.40;1.25;;;;;;;;;;10463175;28;20384;-56
2022/08/21 00:18:59;;;;;;;2.58;1.50;;;;;;;;;;10446336;28;20025;-48
2022/08/21 00:24:00;;;;;;;2.03;1.40;;;;;;;;;;10447966;28;20112;-50
2022/08/21 00:29:01;;;;;;;1.45;1.35;;;;;;;;;;10452137;28;20423;-49
2022/08/21 00:34:02;;;;;;;2.67;1.33;;;;;;;;;;10444911;28;20087;-50
2022/08/21 00:39:05;;;;;;;3.63;1.50;;;;;;;;;;10443099;28;20385;-49
2022/08/21 00:44:12;;;;;;;1.63;1.45;;;;;;;;;;10438106;28;20495;-54
2022/08/21 00:49:13;;;;;;;3.10;1.45;;;;;;;;;;10446069;28;20048;-48
2022/08/21 00:54:15;;;;;;;2.40;1.45;;;;;;;;;;10440666;28;20417;-51
2022/08/21 00:59:19;;;;;;;11.38;1.60;;;;;;;;;;10445417;28;20369;-51
2022/08/21 01:04:22;;;;;;;2.85;1.45;;;;;;;;;;10451020;28;20092;-52
2022/08/21 01:09:22;;;;;;;3.30;1.40;;;;;;;;;;10445425;28;20124;-52
2022/08/21 01:14:23;;;;;;;1.58;1.35;;;;;;;;;;10451143;28;20078;-52
2022/08/21 01:19:24;;;;;;;3.03;1.58;;;;;;;;;;10436075;28;20029;-56
2022/08/21 01:24:25;;;;;;;2.05;1.33;;;;;;;;;;10444983;28;20041;-56
2022/08/21 01:29:49;;;;;;;2.75;1.38;;;;;;;;;;10458267;28;20044;-54
2022/08/21 01:34:51;;;;;;;1.15;1.05;;;;;;;;;;10431886;28;20373;-59
2022/08/21 01:39:53;;;;;;;2.35;1.40;;;;;;;;;;10446008;28;20025;-55
2022/08/21 01:44:53;;;;;;;1.90;1.52;;;;;;;;;;10434717;28;20044;-54
2022/08/21 01:49:54;;;;;;;1.70;1.15;;;;;;;;;;10437074;28;20059;-58
2022/08/21 01:54:55;;;;;;;1.75;1.17;;;;;;;;;;10443087;28;20472;-57
2022/08/21 01:59:55;;;;;;;1.25;1.13;;;;;;;;;;10450962;28;20483;-52
2022/08/21 02:04:56;;;;;;;1.20;1.10;;;;;;;;;;10463803;28;20037;-57
2022/08/21 02:09:57;;;;;;;1.60;1.25;;;;;;;;;;10461728;28;20036;-52
2022/08/21 02:14:58;;;;;;;2.28;1.15;;;;;;;;;;10471943;28;20024;-50
2022/08/21 02:19:58;;;;;;;3.38;1.13;;;;;;;;;;10464285;28;20027;-52
2022/08/21 02:24:59;;;;;;;0.88;0.80;;;;;;;;;;10442011;28;20036;-51
2022/08/21 02:30:00;;;;;;;1.00;1.00;;;;;;;;;;10453231;28;20039;-52
2022/08/21 02:35:00;;;;;;;1.58;1.30;;;;;;;;;;10452768;28;20078;-52
2022/08/21 02:40:01;;;;;;;1.05;0.90;;;;;;;;;;10452594;28;20499;-49
2022/08/21 02:45:03;;;;;;;1.60;1.33;;;;;;;;;;10457423;28;20472;-50
2022/08/21 02:50:06;;;;;;;1.55;1.10;;;;;;;;;;10451158;28;20393;-51
2022/08/21 02:55:07;;;;;;;1.38;1.00;;;;;;;;;;10446545;28;20388;-52
2022/08/21 03:00:11;;;;;;;2.05;1.23;;;;;;;;;;10476337;28;20021;-52
2022/08/21 03:05:12;;;;;;;1.48;1.20;;;;;;;;;;10448245;28;20053;-50
2022/08/21 03:10:14;;;;;;;1.20;1.00;;;;;;;;;;10452622;28;20097;-50
2022/08/21 03:15:18;;;;;;;1.17;0.95;;;;;;;;;;10477931;28;20031;-51
2022/08/21 03:20:23;;;;;;;1.02;0.98;;;;;;;;;;10444454;28;20427;-54
2022/08/21 03:25:26;;;;;;;1.30;1.20;;;;;;;;;;10448790;28;20036;-52
2022/08/21 03:30:27;;;;;;;1.23;1.13;;;;;;;;;;10465256;28;20387;-54
2022/08/21 03:35:28;;;;;;;1.25;1.00;;;;;;;;;;10461483;28;20039;-54
2022/08/21 03:40:28;;;;;;;1.98;1.10;;;;;;;;;;10471103;28;20025;-56
2022/08/21 03:45:29;;;;;;;2.67;1.00;;;;;;;;;;10468552;28;20032;-55
2022/08/21 03:50:34;;;;;;;2.67;1.20;;;;;;;;;;10469508;28;20377;-57
2022/08/21 03:55:35;;;;;;;4.22;1.00;;;;;;;;;;10450747;28;20060;-56
2022/08/21 04:00:35;;;;;;;1.25;0.98;;;;;;;;;;10445825;28;20424;-54
2022/08/21 04:05:37;;;;;;;1.38;1.00;;;;;;;;;;10462421;28;20056;-49
2022/08/21 04:10:39;;;;;;;2.55;1.27;;;;;;;;;;10458306;28;20492;-49
2022/08/21 04:15:41;;;;;;;1.75;1.00;;;;;;;;;;10464577;28;20036;-52
2022/08/21 04:20:44;;;;;;;1.05;0.93;;;;;;;;;;10454794;28;20053;-50
2022/08/21 04:25:45;;;;;;;1.13;1.02;;;;;;;;;;10446774;28;20117;-48
2022/08/21 04:30:46;;;;;;;3.25;1.40;;;;;;;;;;10443499;28;20033;-50
2022/08/21 04:35:48;;;;;;;1.30;1.00;;;;;;;;;;10447071;28;20051;-56
2022/08/21 04:40:49;;;;;;;1.17;1.00;;;;;;;;;;10447138;28;20033;-49
2022/08/21 04:45:52;;;;;;;1.48;1.13;;;;;;;;;;10435500;28;20039;-49
2022/08/21 04:51:11;;;;;;;0.77;0.77;;;;;;;;;;10443086;28;20043;-53
2022/08/21 04:56:20;;;;;;;1.00;0.90;;;;;;;;;;10441657;28;20032;-52
2022/08/21 05:01:24;;;;;;;0.98;0.95;;;;;;;;;;10448346;28;20036;-52
2022/08/21 05:06:27;;;;;;;1.80;1.02;;;;;;;;;;10449102;28;20041;-50
2022/08/21 05:11:30;;;;;;;1.30;1.20;;;;;;;;;;10449514;28;20544;-50
2022/08/21 05:16:30;;;;;;;2.03;1.08;;;;;;;;;;10445617;28;20037;-51
2022/08/21 05:21:31;;;;;;;0.80;0.80;;;;;;;;;;10436555;28;20419;-48
2022/08/21 05:26:32;;;;;;;1.75;1.17;;;;;;;;;;10452630;28;20043;-53
2022/08/21 05:31:33;;;;;;;0.80;0.80;;;;;;;;;;10445061;28;20090;-53
2022/08/21 05:36:34;;;;;;;2.03;0.90;;;;;;;;;;10440912;28;20086;-52
2022/08/21 05:41:35;;;;;;;2.55;0.90;;;;;;;;;;10452486;28;20033;-53
2022/08/21 05:46:35;;;;;;;1.10;1.00;;;;;;;;;;10462756;28;20063;-56
2022/08/21 05:51:36;;;;;;;3.63;1.10;;;;;;;;;;10464922;28;20044;-52
2022/08/21 05:56:37;;;;;;;0.77;0.77;;;;;;;;;;10455727;28;20033;-54
2022/08/21 06:01:37;;;;;;;1.77;1.00;;;;;;;;;;10454406;28;20033;-54
2022/08/21 06:06:38;;;;;;;1.00;0.68;;;;;;;;;;10468978;28;20052;-50
2022/08/21 06:11:39;;;;;;;1.00;0.80;;;;;;;;;;10452123;28;20074;-57
2022/08/21 06:16:39;;;;;;;0.80;0.80;;;;;;;;;;10453136;28;20029;-57
2022/08/21 06:21:40;;;;;;;0.77;0.77;;;;;;;;;;10449915;28;20029;-57
2022/08/21 06:26:41;;;;;;;2.35;0.80;;;;;;;;;;10453629;28;20138;-57
2022/08/21 06:31:41;;;;;;;1.92;0.80;;;;;;;;;;10451283;28;20452;-57
2022/08/21 06:36:42;;;;;;;1.05;0.95;;;;;;;;;;10457416;28;20028;-57
2022/08/21 06:41:43;;;;;;;2.20;1.00;;;;;;;;;;10445965;28;20485;-55
2022/08/21 06:46:46;;;;;;;0.80;0.80;;;;;;;;;;10451479;28;20021;-57
2022/08/21 06:51:47;;;;;;;1.60;1.00;;;;;;;;;;10448481;28;20079;-56
2022/08/21 06:56:47;;;;;;;4.40;1.05;;;;;;;;;;10430757;28;20035;-54
2022/08/21 07:01:48;;;;;;;1.90;0.90;;;;;;;;;;10432839;28;20024;-55
2022/08/21 07:06:49;;;;;;;0.88;0.80;;;;;;;;;;10432762;28;20504;-56
2022/08/21 07:11:53;;;;;;;1.05;0.85;;;;;;;;;;10444884;28;20029;-57
2022/08/21 07:16:54;;;;;;;1.75;1.00;;;;;;;;;;10452976;28;20041;-57
2022/08/21 07:22:00;;;;;;;1.42;0.80;;;;;;;;;;10432353;28;20121;-57
2022/08/21 07:27:01;;;;;;;1.48;0.80;;;;;;;;;;10443900;28;20499;-56
2022/08/21 07:32:02;;;;;;;1.02;0.90;;;;;;;;;;10449129;28;20111;-55
2022/08/21 07:37:03;;;;;;;0.73;0.73;;;;;;;;;;10452485;28;20017;-57
2022/08/21 07:42:04;;;;;;;1.63;0.75;;;;;;;;;;10460509;28;20491;-56
2022/08/21 07:47:04;;;;;;;3.95;0.90;;;;;;;;;;10456575;28;20484;-56
2022/08/21 07:52:06;;;;;;;4.53;0.90;;;;;;;;;;10448250;28;20124;-55
2022/08/21 07:57:06;;;;;;;0.70;0.70;;;;;;;;;;10466490;28;20435;-57
2022/08/21 08:02:07;;;;;;;0.90;0.90;;;;;;;;;;10453463;28;20024;-55
2022/08/21 08:07:08;;;;;;;1.67;0.95;;;;;;;;;;10451152;28;20038;-58
2022/08/21 08:12:08;;;;;;;3.60;1.05;;;;;;;;;;10448932;28;20033;-57
2022/08/21 08:17:09;;;;;;;2.72;0.68;;;;;;;;;;10458202;28;20054;-58
2022/08/21 08:22:22;;;;;;;0.95;0.80;;;;;;;;;;10447620;28;20081;-50
2022/08/21 08:27:22;;;;;;;3.03;1.20;;;;;;;;;;10437410;28;20102;-58
2022/08/21 08:32:23;;;;;;;6.30;0.95;;;;;;;;;;10461208;28;20154;-56
2022/08/21 08:37:23;;;;;;;1.08;0.98;;;;;;;;;;10450490;28;20384;-62
2022/08/21 08:42:35;;;;;;;4.82;1.45;;;;;;;;;;10432506;28;20434;-60
2022/08/21 08:47:44;;;;;;;1.35;1.13;;;;;;;;;;10445989;28;20040;-61
2022/08/21 08:52:54;;;;;;;1.10;1.00;;;;;;;;;;10436420;28;20020;-61
2022/08/21 08:57:56;;;;;;;1.42;0.90;;;;;;;;;;10447456;28;20448;-61
2022/08/21 09:03:00;;;;;;;1.20;1.00;;;;;;;;;;10444995;28;20033;-61
2022/08/21 09:08:13;;;;;;;1.65;0.88;;;;;;;;;;10440879;28;20040;-57
2022/08/21 09:13:33;;;;;;;2.42;1.20;;;;;;;;;;10443306;28;20025;-60
2022/08/21 09:18:44;;;;;;;2.80;1.10;;;;;;;;;;10456741;28;20127;-59
2022/08/21 09:24:18;;;;;;;1.50;1.00;;;;;;;;;;10453920;28;20029;-61
2022/08/21 09:29:24;;;;;;;1.10;1.00;;;;;;;;;;10457319;28;20477;-58
2022/08/21 09:34:31;;;;;;;3.65;1.00;;;;;;;;;;10467678;28;20419;-54
2022/08/21 09:39:39;;;;;;;1.52;0.98;;;;;;;;;;10458637;28;20173;-55
2022/08/21 09:44:43;;;;;;;6.03;1.05;;;;;;;;;;10434224;28;20028;-54
2022/08/21 09:49:44;;;;;;;1.75;1.10;;;;;;;;;;10437181;28;20030;-53
2022/08/21 09:54:46;;;;;;;2.45;1.02;;;;;;;;;;10449296;28;20126;-60
2022/08/21 09:59:47;;;;;;;2.50;0.88;;;;;;;;;;10430364;28;20396;-55
2022/08/21 10:05:06;;;;;;;1.83;0.95;;;;;;;;;;10464841;28;20051;-54
2022/08/21 10:10:19;;;;;;;1.17;0.85;;;;;;;;;;10442571;28;20068;-56
2022/08/21 10:15:48;;;;;;;2.05;1.00;;;;;;;;;;10448898;28;20332;-60
2022/08/21 10:21:16;;;;;;;2.00;0.90;;;;;;;;;;10455825;28;20021;-56
2022/08/21 10:26:56;;;;;;;2.20;1.10;;;;;;;;;;10449002;28;20454;-58
2022/08/21 10:32:06;;;;;;;1.55;1.10;;;;;;;;;;10447981;28;20036;-58
2022/08/21 10:37:26;;;;;;;1.05;1.00;;;;;;;;;;10451260;28;20029;-59
2022/08/21 10:42:55;;;;;;;21.88;1.63;;;;;;;;;;10446651;28;20041;-60
2022/08/21 10:48:08;;;;;;;5.60;1.13;;;;;;;;;;10449677;28;20037;-60
2022/08/21 10:53:30;;;;;;;5.47;1.15;;;;;;;;;;10443713;28;20472;-59
2022/08/21 10:59:04;;;;;;;2.63;0.93;;;;;;;;;;10456695;28;20028;-60
2022/08/21 11:04:51;;;;;;;9.80;1.33;;;;;;;;;;10435957;28;20139;-60
2022/08/21 11:09:56;;;;;;;5.50;1.37;;;;;;;;;;10461621;28;20036;-59
2022/08/21 11:15:26;;;;;;;1.90;1.02;;;;;;;;;;10471920;28;20111;-56
2022/08/21 11:20:39;;;;;;;4.15;1.23;;;;;;;;;;10449675;28;20037;-56
2022/08/21 11:25:47;;;;;;;2.67;1.00;;;;;;;;;;10456608;28;20426;-56
2022/08/21 11:31:32;;;;;;;2.95;1.10;;;;;;;;;;10446842;28;20067;-54
2022/08/21 11:36:58;;;;;;;1.27;0.80;;;;;;;;;;10415048;28;20058;-55
2022/08/21 11:42:29;;;;;;;1.75;0.90;;;;;;;;;;10450042;28;20021;-57
2022/08/21 11:48:07;;;;;;;1.55;0.90;;;;;;;;;;10447163;28;20021;-56
2022/08/21 11:53:25;;;;;;;0.95;0.73;;;;;;;;;;10439100;28;20115;-53
2022/08/21 11:58:35;;;;;;;1.88;0.90;;;;;;;;;;10438501;28;20182;-56
2022/08/21 12:03:40;;;;;;;0.88;0.80;;;;;;;;;;10451380;28;20025;-57
2022/08/21 12:08:45;;;;;;;0.68;0.65;;;;;;;;;;10443280;28;20035;-54
2022/08/21 12:14:16;;;;;;;0.98;0.85;;;;;;;;;;10445471;28;20041;-53
2022/08/21 12:19:20;;;;;;;0.88;0.80;;;;;;;;;;10452368;28;20571;-56
2022/08/21 12:24:38;;;;;;;1.00;0.80;;;;;;;;;;10460839;28;20078;-56
2022/08/21 12:29:45;;;;;;;2.45;0.93;;;;;;;;;;10461007;28;20091;-56
2022/08/21 12:34:51;;;;;;;0.90;0.77;;;;;;;;;;10435083;28;20037;-59
2022/08/21 12:39:54;;;;;;;2.85;1.17;;;;;;;;;;10435622;28;20188;-57
2022/08/21 12:45:05;;;;;;;2.33;0.82;;;;;;;;;;10432963;28;20496;-59
2022/08/21 12:50:18;;;;;;;1.00;0.80;;;;;;;;;;10436866;28;20060;-59
2022/08/21 12:55:29;;;;;;;0.70;0.70;;;;;;;;;;10446762;28;20025;-58
2022/08/21 13:00:30;;;;;;;0.80;0.70;;;;;;;;;;10448164;28;20036;-58
2022/08/21 13:05:35;;;;;;;0.73;0.73;;;;;;;;;;10445618;28;20048;-59
2022/08/21 13:10:37;;;;;;;0.50;0.50;;;;;;;;;;10438653;28;20136;-59
2022/08/21 13:15:41;;;;;;;0.88;0.80;;;;;;;;;;10448091;28;20067;-54
2022/08/21 13:20:42;;;;;;;1.45;0.80;;;;;;;;;;10449056;28;20041;-51
2022/08/21 13:25:42;;;;;;;1.00;0.85;;;;;;;;;;10447709;28;20075;-54
2022/08/21 13:30:47;;;;;;;3.42;0.90;;;;;;;;;;10445371;28;20496;-57
2022/08/21 13:35:52;;;;;;;1.20;0.82;;;;;;;;;;10445277;28;20031;-53
2022/08/21 13:40:58;;;;;;;1.00;0.90;;;;;;;;;;10434504;28;20028;-53
2022/08/21 13:46:00;;;;;;;11.80;1.20;;;;;;;;;;10440763;28;20167;-55
2022/08/21 13:51:02;;;;;;;2.50;1.05;;;;;;;;;;10440376;28;20050;-53
2022/08/21 13:56:04;;;;;;;1.55;0.90;;;;;;;;;;10449869;28;20259;-55
2022/08/21 14:01:05;;;;;;;1.92;0.80;;;;;;;;;;10449555;28;20477;-56
2022/08/21 14:06:19;;;;;;;0.88;0.75;;;;;;;;;;10446502;28;20041;-55
2022/08/21 14:11:20;;;;;;;0.90;0.88;;;;;;;;;;10442257;28;20025;-60
2022/08/21 14:16:25;;;;;;;1.73;1.10;;;;;;;;;;10451909;28;20035;-59
2022/08/21 14:21:45;;;;;;;1.10;0.80;;;;;;;;;;10463845;28;21192;-57
2022/08/21 14:26:53;;;;;;;2.88;0.75;;;;;;;;;;10459301;28;20025;-54
2022/08/21 14:31:59;;;;;;;0.77;0.52;;;;;;;;;;10439984;28;20494;-53
2022/08/21 14:36:59;;;;;;;2.05;0.80;;;;;;;;;;10449472;28;20115;-57
2022/08/21 14:42:01;;;;;;;1.23;0.70;;;;;;;;;;10454966;28;20024;-60
2022/08/21 14:47:02;;;;;;;2.70;0.75;;;;;;;;;;10452285;28;20357;-56
2022/08/21 14:52:03;;;;;;;0.68;0.60;;;;;;;;;;10449786;28;20029;-59
2022/08/21 14:57:08;;;;;;;0.85;0.80;;;;;;;;;;10444335;28;20025;-58
2022/08/21 15:02:09;;;;;;;0.60;0.60;;;;;;;;;;10440251;28;20112;-56
2022/08/21 15:07:10;;;;;;;0.98;0.68;;;;;;;;;;10443721;28;20066;-61
2022/08/21 15:12:12;;;;;;;2.78;0.47;;;;;;;;;;10462376;28;20132;-51
2022/08/21 15:17:13;;;;;;;2.05;0.60;;;;;;;;;;10463051;28;20027;-56
2022/08/21 15:22:14;;;;;;;0.60;0.60;;;;;;;;;;10461541;28;20040;-52
2022/08/21 15:27:18;;;;;;;0.70;0.70;;;;;;;;;;10438483;28;20025;-55
2022/08/21 15:32:24;;;;;;;1.30;0.60;;;;;;;;;;10447224;28;20044;-57
2022/08/21 15:37:26;;;;;;;1.02;0.70;;;;;;;;;;10447994;28;20040;-54
2022/08/21 15:42:27;;;;;;;1.73;0.70;;;;;;;;;;10432352;28;20189;-58
2022/08/21 15:47:35;;;;;;;2.67;0.57;;;;;;;;;;10444316;28;20027;-54
2022/08/21 15:52:35;;;;;;;;;;;;;;;;;;10441127;28;20024;-52
2022/08/21 15:57:42;;;;;;;1.75;0.70;;;;;;;;;;10446873;28;19916;-55
2022/08/21 16:02:47;;;;;;;0.88;0.63;;;;;;;;;;10445128;28;20037;-52
2022/08/21 16:07:49;;;;;;;0.50;0.50;;;;;;;;;;10443492;28;20614;-54
2022/08/21 16:13:01;;;;;;;0.50;0.50;;;;;;;;;;10443362;28;20029;-53
2022/08/21 16:18:02;;;;;;;0.68;0.60;;;;;;;;;;10454916;28;20277;-59
2022/08/21 16:23:03;;;;;;;0.63;0.52;;;;;;;;;;10445240;28;20507;-60
2022/08/21 16:28:07;;;;;;;0.60;0.60;;;;;;;;;;10450810;28;20035;-61
2022/08/21 16:33:24;;;;;;;0.95;0.60;;;;;;;;;;10444624;28;20056;-61
2022/08/21 16:38:26;;;;;;;0.82;0.60;;;;;;;;;;10451940;28;20415;-60
2022/08/21 16:43:28;;;;;;;0.50;0.50;;;;;;;;;;10439477;28;20571;-61
2022/08/21 16:48:29;;;;;;;1.27;0.60;;;;;;;;;;10444708;28;20029;-56
2022/08/21 16:53:30;;;;;;;0.60;0.60;;;;;;;;;;10445950;28;20036;-60
2022/08/21 16:58:38;;;;;;;0.60;0.60;;;;;;;;;;10449569;28;20025;-60
2022/08/21 17:03:44;;;;;;;3.03;0.75;;;;;;;;;;10451253;28;20021;-58
2022/08/21 17:08:46;;;;;;;1.27;0.63;;;;;;;;;;10448841;28;20029;-60
2022/08/21 17:13:47;;;;;;;0.45;0.45;;;;;;;;;;10446596;28;20059;-59
2022/08/21 17:18:47;;;;;;;0.70;0.70;;;;;;;;;;10463795;28;20119;-60
2022/08/21 17:23:48;;;;;;;1.65;0.73;;;;;;;;;;10453361;28;20032;-56
2022/08/21 17:28:49;;;;;;;0.90;0.60;;;;;;;;;;10446259;28;20033;-58
2022/08/21 17:33:52;;;;;;;1.10;0.80;;;;;;;;;;10444578;28;20036;-60
2022/08/21 17:38:54;;;;;;;0.55;0.52;;;;;;;;;;10459813;28;20515;-59
2022/08/21 17:43:55;;;;;;;0.65;0.65;;;;;;;;;;10474225;28;20029;-60
2022/08/21 17:48:56;;;;;;;1.85;0.77;;;;;;;;;;10447840;28;20040;-59
2022/08/21 17:53:57;;;;;;;1.67;0.82;;;;;;;;;;10461420;28;20029;-56
2022/08/21 17:58:58;;;;;;;0.60;0.60;;;;;;;;;;10463641;28;20040;-61
2022/08/21 18:03:59;;;;;;;2.60;0.65;;;;;;;;;;10466222;28;20049;-60
2022/08/21 18:08:59;;;;;;;0.80;0.80;;;;;;;;;;10466476;28;20487;-60
2022/08/21 18:14:03;;;;;;;1.13;0.60;;;;;;;;;;10457509;28;20027;-58
2022/08/21 18:19:10;;;;;;;0.65;0.65;;;;;;;;;;10461701;28;20037;-56
2022/08/21 18:24:11;;;;;;;0.73;0.50;;;;;;;;;;10474291;28;20471;-61
2022/08/21 18:29:16;;;;;;;0.70;0.70;;;;;;;;;;10438957;28;20029;-54
2022/08/21 18:34:33;;;;;;;1.98;0.90;;;;;;;;;;10448220;28;20094;-54
2022/08/21 18:39:34;;;;;;;3.30;1.17;;;;;;;;;;10444322;28;20029;-58
2022/08/21 18:44:36;;;;;;;2.08;0.73;;;;;;;;;;10428108;28;20024;-59
2022/08/21 18:49:37;;;;;;;0.70;0.70;;;;;;;;;;10442815;28;20024;-54
2022/08/21 18:54:44;;;;;;;1.95;0.98;;;;;;;;;;10435256;28;20098;-52
2022/08/21 18:59:45;;;;;;;1.75;0.88;;;;;;;;;;10453623;28;20032;-55
2022/08/21 19:04:46;;;;;;;1.70;0.80;;;;;;;;;;10446800;28;20500;-59
2022/08/21 19:09:46;;;;;;;6.90;1.23;;;;;;;;;;10454451;28;20029;-60
2022/08/21 19:14:47;;;;;;;2.17;1.00;;;;;;;;;;10445117;28;20098;-60
2022/08/21 19:19:48;;;;;;;1.85;1.00;;;;;;;;;;10452376;28;20033;-57
2022/08/21 19:24:49;;;;;;;5.43;1.40;;;;;;;;;;10449618;28;20060;-62
2022/08/21 19:29:55;;;;;;;5.05;0.90;;;;;;;;;;10442973;28;20029;-52
2022/08/21 19:34:56;;;;;;;4.97;1.15;;;;;;;;;;10354745;28;20468;-51
2022/08/21 19:39:56;;;;;;;8.05;1.23;;;;;;;;;;10364469;28;20072;-55
2022/08/21 19:45:07;;;;;;;4.60;1.10;;;;;;;;;;10368556;28;20041;-52
2022/08/21 19:50:17;;;;;;;2.55;1.00;;;;;;;;;;10352441;28;20372;-53
2022/08/21 19:55:25;;;;;;;6.38;1.42;;;;;;;;;;10361718;28;20396;-53
2022/08/21 20:00:34;;;;;;;2.55;1.25;;;;;;;;;;10393459;28;20029;-54
2022/08/21 20:05:39;;;;;;;1.77;1.00;;;;;;;;;;10385795;28;20056;-60
2022/08/21 20:10:47;;;;;;;1.90;1.13;;;;;;;;;;10381402;28;20056;-54
2022/08/21 20:15:57;;;;;;;1.30;0.90;;;;;;;;;;10404748;28;20764;-52
2022/08/21 20:21:09;;;;;;;9.23;1.42;;;;;;;;;;10403081;28;20125;-49
2022/08/21 20:26:10;;;;;;;23.13;4.22;;;;;;;;;;10381055;28;20029;-55
2022/08/21 20:31:11;;;;;;;6.05;1.77;;;;;;;;;;10380266;28;20064;-54
2022/08/21 20:36:12;;;;;;;2.05;1.23;;;;;;;;;;10385386;28;20038;-55
2022/08/21 20:41:13;;;;;;;7.60;1.50;;;;;;;;;;10383315;28;20583;-56
2022/08/21 20:46:23;;;;;;;6.65;1.40;;;;;;;;;;10398214;28;20033;-57
2022/08/21 20:51:35;;;;;;;4.55;1.50;;;;;;;;;;10366534;28;20044;-57
2022/08/21 20:56:56;;;;;;;6.65;1.42;;;;;;;;;;10360204;28;20110;-55
2022/08/21 21:02:28;;;;;;;5.97;1.50;;;;;;;;;;10359885;28;20513;-50
2022/08/21 21:07:58;;;;;;;11.95;1.35;;;;;;;;;;10402853;28;20392;-54
2022/08/21 21:13:18;;;;;;;4.72;1.00;;;;;;;;;;10383266;28;20048;-56
2022/08/21 21:18:42;;;;;;;3.38;1.25;;;;;;;;;;10388805;28;20110;-58
2022/08/21 21:23:51;;;;;;;4.00;1.08;;;;;;;;;;10380920;28;20040;-56
2022/08/21 21:29:13;;;;;;;2.03;0.90;;;;;;;;;;10383311;28;20033;-53
2022/08/21 21:34:14;;;;;;;6.22;1.17;;;;;;;;;;10381548;28;20021;-51
2022/08/21 21:39:39;;;;;;;3.40;1.23;;;;;;;;;;10386862;28;20136;-55
2022/08/21 21:45:24;;;;;;;4.25;0.80;;;;;;;;;;10372488;28;20036;-55
2022/08/21 21:50:57;;;;;;;3.15;0.63;;;;;;;;;;10380584;28;20614;-56
2022/08/21 21:56:34;;;;;;;2.42;0.90;;;;;;;;;;10355955;28;20056;-59
2022/08/21 22:02:01;;;;;;;1.70;0.70;;;;;;;;;;10311994;28;20076;-57
2022/08/21 22:07:24;;;;;;;1.50;0.73;;;;;;;;;;10372133;28;20079;-56
2022/08/21 22:13:07;;;;;;;1.33;0.73;;;;;;;;;;10372173;28;20447;-60
2022/08/21 22:18:15;;;;;;;3.53;0.80;;;;;;;;;;10376521;28;20037;-54
2022/08/21 22:23:24;;;;;;;3.33;1.02;;;;;;;;;;10398200;28;20094;-49
2022/08/21 22:28:26;;;;;;;8.95;1.10;;;;;;;;;;10462754;28;20079;-57
2022/08/21 22:33:28;;;;;;;4.25;0.90;;;;;;;;;;10435910;28;20070;-54
2022/08/21 22:38:35;;;;;;;13.77;1.25;;;;;;;;;;10465038;28;20112;-58
2022/08/21 22:43:49;;;;;;;10.27;1.23;;;;;;;;;;10466233;28;20120;-51
2022/08/21 22:49:24;;;;;;;12.05;1.80;;;;;;;;;;10431753;28;20033;-50
2022/08/21 22:54:39;;;;;;;33.80;2.53;;;;;;;;;;10419284;28;20773;-53
2022/08/21 23:00:15;;;;;;;24.48;2.40;;;;;;;;;;10427375;28;20420;-51
2022/08/21 23:05:24;;;;;;;21.00;2.40;;;;;;;;;;10422538;28;20435;-48
2022/08/21 23:10:38;;;;;;;16.33;1.70;;;;;;;;;;10426510;28;20052;-54
2022/08/21 23:16:08;;;;;;;15.57;2.05;;;;;;;;;;10424646;28;20031;-48
2022/08/21 23:21:51;;;;;;;13.43;1.75;;;;;;;;;;10435639;28;20379;-50
2022/08/21 23:27:16;;;;;;;16.05;1.70;;;;;;;;;;10427364;28;20056;-49
2022/08/21 23:32:42;;;;;;;8.05;1.17;;;;;;;;;;10453479;28;20343;-48
2022/08/21 23:38:05;;;;;;;17.02;2.22;;;;;;;;;;10429391;28;20079;-50
2022/08/21 23:43:47;;;;;;;8.95;1.25;;;;;;;;;;10458134;28;20031;-60
2022/08/21 23:49:12;;;;;;;9.48;1.38;;;;;;;;;;10436529;28;20037;-60
2022/08/21 23:54:25;;;;;;;7.80;1.40;;;;;;;;;;10453334;28;20041;-61
2022/08/21 23:59:52;;;;;;;4.30;0.88;;;;;;;;;;10459279;28;20756;-60
